createdAt,value
2018-07-14T00:00:23.983Z,16.40
2018-07-14T00:02:51.805Z,16.30
2018-07-14T00:05:19.693Z,16.30
2018-07-14T00:07:47.673Z,16.30
2018-07-14T00:10:16.284Z,16.30
2018-07-14T00:12:44.224Z,16.30
2018-07-14T00:15:12.101Z,16.20
2018-07-14T00:17:40.061Z,16.20
2018-07-14T00:20:07.913Z,16.20
2018-07-14T00:22:35.829Z,16.20
2018-07-14T00:25:03.742Z,16.10
2018-07-14T00:27:31.650Z,16.10
2018-07-14T00:29:59.477Z,16.10
2018-07-14T00:32:27.358Z,16.00
2018-07-14T00:34:55.246Z,16.10
2018-07-14T00:37:23.103Z,16.10
2018-07-14T00:39:51.065Z,16.10
2018-07-14T00:42:18.897Z,16.10
2018-07-14T00:44:46.783Z,16.10
2018-07-14T00:47:14.635Z,16.20
2018-07-14T00:49:42.534Z,16.20
2018-07-14T00:52:10.377Z,16.20
2018-07-14T00:54:38.209Z,16.10
2018-07-14T00:57:06.030Z,16.20
2018-07-14T00:59:33.860Z,16.20
2018-07-14T01:02:01.921Z,16.20
2018-07-14T01:04:29.691Z,16.20
2018-07-14T01:06:57.491Z,16.20
2018-07-14T01:09:25.406Z,16.20
2018-07-14T01:14:21.213Z,16.30
2018-07-14T01:16:49.003Z,16.40
2018-07-14T01:19:16.874Z,16.40
2018-07-14T01:21:44.741Z,16.40
2018-07-14T01:24:12.569Z,16.40
2018-07-14T01:26:43.217Z,16.30
2018-07-14T01:29:11.243Z,16.20
2018-07-14T01:31:39.118Z,16.20
2018-07-14T01:34:07.038Z,16.10
2018-07-14T01:36:34.963Z,16.10
2018-07-14T01:39:03.265Z,16.10
2018-07-14T01:41:31.113Z,16.10
2018-07-14T01:43:58.989Z,16.10
2018-07-14T01:46:26.850Z,16.10
2018-07-14T01:48:54.725Z,16.10
2018-07-14T01:51:22.566Z,16.00
2018-07-14T01:53:50.421Z,16.00
2018-07-14T01:56:18.274Z,16.00
2018-07-14T01:58:46.181Z,16.00
2018-07-14T02:01:13.982Z,16.00
2018-07-14T02:03:41.835Z,16.00
2018-07-14T02:06:09.740Z,16.00
2018-07-14T02:08:37.642Z,16.00
2018-07-14T02:11:05.477Z,16.00
2018-07-14T02:13:33.235Z,16.00
2018-07-14T02:16:01.047Z,15.90
2018-07-14T02:18:28.922Z,15.90
2018-07-14T02:20:56.801Z,15.90
2018-07-14T02:23:25.181Z,15.80
2018-07-14T02:25:53.077Z,15.80
2018-07-14T02:28:20.990Z,15.70
2018-07-14T02:30:48.923Z,15.70
2018-07-14T02:33:16.844Z,15.70
2018-07-14T02:35:44.741Z,15.70
2018-07-14T02:38:12.641Z,15.60
2018-07-14T02:40:40.468Z,15.60
2018-07-14T02:43:08.326Z,15.60
2018-07-14T02:45:36.183Z,15.50
2018-07-14T02:48:04.202Z,15.50
2018-07-14T02:50:32.073Z,15.50
2018-07-14T02:52:59.885Z,15.40
2018-07-14T02:55:27.760Z,15.40
2018-07-14T02:57:55.602Z,15.40
2018-07-14T03:00:23.433Z,15.40
2018-07-14T03:02:51.298Z,15.40
2018-07-14T03:05:19.119Z,15.30
2018-07-14T03:07:46.944Z,15.30
2018-07-14T03:10:14.782Z,15.30
2018-07-14T03:12:42.618Z,15.30
2018-07-14T03:15:10.444Z,15.30
2018-07-14T03:17:38.332Z,15.30
2018-07-14T03:20:06.217Z,15.30
2018-07-14T03:22:34.079Z,15.30
2018-07-14T03:25:01.906Z,15.30
2018-07-14T03:27:29.847Z,15.30
2018-07-14T03:29:57.750Z,15.30
2018-07-14T03:32:25.529Z,15.40
2018-07-14T03:34:53.418Z,15.40
2018-07-14T03:37:21.234Z,15.50
2018-07-14T03:39:49.201Z,15.50
2018-07-14T03:44:45.176Z,15.60
2018-07-14T03:47:13.029Z,15.70
2018-07-14T03:49:40.865Z,15.70
2018-07-14T03:52:08.810Z,15.80
2018-07-14T03:54:36.681Z,15.80
2018-07-14T03:57:04.636Z,15.90
2018-07-14T03:59:32.520Z,15.90
2018-07-14T04:02:00.402Z,16.00
2018-07-14T04:04:28.205Z,16.00
2018-07-14T04:06:56.073Z,16.10
2018-07-14T04:09:23.965Z,16.20
2018-07-14T04:11:51.885Z,16.20
2018-07-14T04:14:19.698Z,16.40
2018-07-14T04:16:47.601Z,16.40
2018-07-14T04:19:15.527Z,16.50
2018-07-14T04:21:43.447Z,16.60
2018-07-14T04:24:11.289Z,16.70
2018-07-14T04:26:39.150Z,16.80
2018-07-14T04:29:07.071Z,16.90
2018-07-14T04:31:34.903Z,17.00
2018-07-14T04:34:02.797Z,17.20
2018-07-14T04:36:30.742Z,17.30
2018-07-14T04:38:58.654Z,17.40
2018-07-14T04:41:26.549Z,17.50
2018-07-14T04:43:54.439Z,17.60
2018-07-14T04:46:22.372Z,17.80
2018-07-14T04:48:50.162Z,17.90
2018-07-14T04:51:18.087Z,18.00
2018-07-14T04:53:46.019Z,18.30
2018-07-14T04:56:13.919Z,19.50
2018-07-14T04:58:41.837Z,21.00
2018-07-14T05:01:09.610Z,22.50
2018-07-14T05:03:37.401Z,23.90
2018-07-14T05:06:05.252Z,25.20
2018-07-14T05:08:33.102Z,26.30
2018-07-14T05:11:00.839Z,27.00
2018-07-14T05:13:28.630Z,27.70
2018-07-14T05:15:56.385Z,28.30
2018-07-14T05:18:24.252Z,28.90
2018-07-14T05:20:52.099Z,29.10
2018-07-14T05:23:19.929Z,29.50
2018-07-14T05:25:47.837Z,29.90
2018-07-14T05:28:15.778Z,30.30
2018-07-14T05:30:43.581Z,30.50
2018-07-14T05:33:11.558Z,30.70
2018-07-14T05:35:39.320Z,31.00
2018-07-14T05:38:07.187Z,31.20
2018-07-14T05:40:35.081Z,31.40
2018-07-14T05:43:03.058Z,31.50
2018-07-14T05:45:30.950Z,31.70
2018-07-14T05:47:58.815Z,32.20
2018-07-14T05:50:26.662Z,32.60
2018-07-14T05:52:54.485Z,32.90
2018-07-14T05:55:22.738Z,33.00
2018-07-14T05:57:50.595Z,33.30
2018-07-14T06:00:18.434Z,33.60
2018-07-14T06:02:46.373Z,33.80
2018-07-14T06:05:14.455Z,34.10
2018-07-14T06:07:42.347Z,34.40
2018-07-14T06:10:10.257Z,34.40
2018-07-14T06:12:38.028Z,34.40
2018-07-14T06:15:05.894Z,34.30
2018-07-14T06:17:33.798Z,34.60
2018-07-14T06:20:01.647Z,34.90
2018-07-14T06:22:29.478Z,35.10
2018-07-14T06:24:57.271Z,35.40
2018-07-14T06:27:25.091Z,35.40
2018-07-14T06:29:52.951Z,35.40
2018-07-14T06:32:20.772Z,35.60
2018-07-14T06:34:48.567Z,35.60
2018-07-14T06:37:16.517Z,35.60
2018-07-14T06:39:44.280Z,35.80
2018-07-14T06:42:12.115Z,35.90
2018-07-14T06:44:39.929Z,36.10
2018-07-14T06:47:07.825Z,36.30
2018-07-14T06:49:35.658Z,36.30
2018-07-14T06:52:03.438Z,36.20
2018-07-14T06:54:31.215Z,36.50
2018-07-14T06:59:26.877Z,34.40
2018-07-14T07:01:54.778Z,32.70
2018-07-14T07:04:22.628Z,33.10
2018-07-14T07:06:50.580Z,33.90
2018-07-14T07:09:18.463Z,34.40
2018-07-14T07:11:46.379Z,34.70
2018-07-14T07:14:14.219Z,34.70
2018-07-14T07:16:42.084Z,34.80
2018-07-14T07:19:09.887Z,35.00
2018-07-14T07:21:37.662Z,35.30
2018-07-14T07:24:05.765Z,35.60
2018-07-14T07:26:33.501Z,34.70
2018-07-14T07:29:01.346Z,34.90
2018-07-14T07:31:29.195Z,35.30
2018-07-14T07:33:57.182Z,35.50
2018-07-14T07:36:25.023Z,35.40
2018-07-14T07:38:52.902Z,35.40
2018-07-14T07:41:20.721Z,35.20
2018-07-14T07:43:48.475Z,34.90
2018-07-14T07:46:16.302Z,34.80
2018-07-14T07:48:44.109Z,34.70
2018-07-14T07:51:11.987Z,34.70
2018-07-14T07:53:39.870Z,34.80
2018-07-14T07:56:07.730Z,34.70
2018-07-14T07:58:35.621Z,34.50
2018-07-14T08:01:03.417Z,34.20
2018-07-14T08:03:30.961Z,34.00
2018-07-14T08:05:58.521Z,33.80
2018-07-14T08:08:26.084Z,33.80
2018-07-14T08:10:53.645Z,34.00
2018-07-14T08:13:21.307Z,34.20
2018-07-14T08:15:49.070Z,34.40
2018-07-14T08:18:16.821Z,34.50
2018-07-14T08:20:44.549Z,34.20
2018-07-14T08:23:12.375Z,34.00
2018-07-14T08:25:40.090Z,33.60
2018-07-14T08:28:07.889Z,33.40
2018-07-14T08:30:35.665Z,33.50
2018-07-14T08:33:03.502Z,33.40
2018-07-14T08:35:31.241Z,33.10
2018-07-14T08:37:59.041Z,33.30
2018-07-14T08:40:26.798Z,33.20
2018-07-14T08:42:54.610Z,33.20
2018-07-14T08:45:22.353Z,33.60
2018-07-14T08:47:50.153Z,33.70
2018-07-14T08:50:17.872Z,33.20
2018-07-14T08:52:45.785Z,32.40
2018-07-14T08:55:13.529Z,32.10
2018-07-14T08:57:41.418Z,32.20
2018-07-14T09:00:09.198Z,32.30
2018-07-14T09:02:37.343Z,32.80
2018-07-14T09:05:05.609Z,33.20
2018-07-14T09:07:33.441Z,33.70
2018-07-14T09:10:01.281Z,33.60
2018-07-14T09:12:34.816Z,33.10
2018-07-14T09:15:02.581Z,32.90
2018-07-14T09:17:30.285Z,31.80
2018-07-14T09:19:58.038Z,30.90
2018-07-14T09:22:25.810Z,31.20
2018-07-14T09:24:53.606Z,31.90
2018-07-14T09:27:21.399Z,32.30
2018-07-14T09:29:49.134Z,31.90
2018-07-14T09:32:16.916Z,31.10
2018-07-14T09:34:44.742Z,30.40
2018-07-14T09:37:12.542Z,30.00
2018-07-14T09:39:40.399Z,30.10
2018-07-14T09:42:08.267Z,30.60
2018-07-14T09:44:36.119Z,30.30
2018-07-14T09:47:03.989Z,29.60
2018-07-14T09:49:31.771Z,29.60
2018-07-14T09:51:59.680Z,30.50
2018-07-14T09:54:27.261Z,31.60
2018-07-14T09:56:54.842Z,32.30
2018-07-14T09:59:22.447Z,32.10
2018-07-14T10:01:50.006Z,31.20
2018-07-14T10:04:17.562Z,30.50
2018-07-14T10:06:45.131Z,30.90
2018-07-14T10:09:12.680Z,31.70
2018-07-14T10:11:40.220Z,32.40
2018-07-14T10:14:07.790Z,32.90
2018-07-14T10:16:35.335Z,32.70
2018-07-14T10:19:02.879Z,32.90
2018-07-14T10:21:30.436Z,33.40
2018-07-14T10:23:57.991Z,34.00
2018-07-14T10:26:25.541Z,34.50
2018-07-14T10:28:53.074Z,35.10
2018-07-14T10:31:20.634Z,35.50
2018-07-14T10:33:48.294Z,35.50
2018-07-14T10:36:15.754Z,34.70
2018-07-14T10:38:43.309Z,33.60
2018-07-14T10:41:10.870Z,32.80
2018-07-14T10:43:38.433Z,32.90
2018-07-14T10:46:06.221Z,33.40
2018-07-14T10:48:33.796Z,33.60
2018-07-14T10:51:01.386Z,34.00
2018-07-14T10:53:28.957Z,34.10
2018-07-14T10:55:56.533Z,33.00
2018-07-14T10:58:24.273Z,31.60
2018-07-14T11:00:52.090Z,31.10
2018-07-14T11:03:19.889Z,31.60
2018-07-14T11:05:47.595Z,32.00
2018-07-14T11:08:15.311Z,32.10
2018-07-14T11:10:43.102Z,32.30
2018-07-14T11:13:10.991Z,32.80
2018-07-14T11:15:38.865Z,33.10
2018-07-14T11:18:06.799Z,33.20
2018-07-14T11:20:34.639Z,33.10
2018-07-14T11:23:02.433Z,32.80
2018-07-14T11:25:30.279Z,32.90
2018-07-14T11:27:58.070Z,33.30
2018-07-14T11:30:25.834Z,33.70
2018-07-14T11:32:53.646Z,34.20
2018-07-14T11:37:53.069Z,34.20
2018-07-14T11:40:20.899Z,34.20
2018-07-14T11:42:48.783Z,34.40
2018-07-14T11:45:16.526Z,34.70
2018-07-14T11:47:44.428Z,34.50
2018-07-14T11:50:12.135Z,33.90
2018-07-14T11:52:39.925Z,33.50
2018-07-14T11:55:07.722Z,33.50
2018-07-14T11:57:35.623Z,33.50
2018-07-14T12:00:03.431Z,33.70
2018-07-14T12:02:31.226Z,34.20
2018-07-14T12:07:26.731Z,34.60
2018-07-14T12:09:54.567Z,34.50
2018-07-14T12:12:22.366Z,34.20
2018-07-14T12:14:50.116Z,34.00
2018-07-14T12:17:17.870Z,33.80
2018-07-14T12:19:45.680Z,33.60
2018-07-14T12:22:13.524Z,33.70
2018-07-14T12:24:41.319Z,34.00
2018-07-14T12:27:09.144Z,34.10
2018-07-14T12:29:36.914Z,33.90
2018-07-14T12:32:04.810Z,34.00
2018-07-14T12:34:32.662Z,34.00
2018-07-14T12:37:00.471Z,34.00
2018-07-14T12:39:28.314Z,34.40
2018-07-14T12:41:56.159Z,34.80
2018-07-14T12:44:24.057Z,34.70
2018-07-14T12:46:51.822Z,34.40
2018-07-14T12:49:19.529Z,34.30
2018-07-14T12:51:47.322Z,34.10
2018-07-14T12:54:15.161Z,34.00
2018-07-14T12:56:42.942Z,33.90
2018-07-14T12:59:10.747Z,34.20
2018-07-14T13:01:38.869Z,34.40
2018-07-14T13:04:06.707Z,34.50
2018-07-14T13:06:34.616Z,35.00
2018-07-14T13:09:02.661Z,35.20
2018-07-14T13:11:30.221Z,35.10
2018-07-14T13:13:57.841Z,34.80
2018-07-14T13:16:25.458Z,34.80
2018-07-14T13:19:18.328Z,34.80
2018-07-14T13:21:52.970Z,34.70
2018-07-14T13:24:20.771Z,35.00
2018-07-14T13:26:48.606Z,35.30
2018-07-14T13:32:23.961Z,34.90
2018-07-14T13:34:57.585Z,35.10
2018-07-14T13:37:38.849Z,35.10
2018-07-14T13:40:27.556Z,35.00
2018-07-14T13:42:55.325Z,34.80
2018-07-14T13:45:23.228Z,34.90
2018-07-14T13:47:51.073Z,35.00
2018-07-14T13:50:18.947Z,34.90
2018-07-14T13:52:46.721Z,34.70
2018-07-14T13:55:14.618Z,34.70
2018-07-14T13:57:42.462Z,35.00
2018-07-14T14:00:10.278Z,35.00
2018-07-14T14:02:37.910Z,35.00
2018-07-14T14:05:05.764Z,35.10
2018-07-14T14:07:33.349Z,35.40
2018-07-14T14:10:00.929Z,35.60
2018-07-14T14:12:28.554Z,35.90
2018-07-14T14:14:56.125Z,36.00
2018-07-14T14:17:23.738Z,36.20
2018-07-14T14:19:51.296Z,36.20
2018-07-14T14:22:18.857Z,36.00
2018-07-14T14:24:46.397Z,35.60
2018-07-14T14:27:13.951Z,35.30
2018-07-14T14:29:41.494Z,35.20
2018-07-14T14:32:09.058Z,34.90
2018-07-14T14:34:36.597Z,34.90
2018-07-14T14:37:04.142Z,35.00
2018-07-14T14:39:31.673Z,35.00
2018-07-14T14:41:59.552Z,34.80
2018-07-14T14:44:27.097Z,34.90
2018-07-14T14:46:54.694Z,35.30
2018-07-14T14:49:22.248Z,35.50
2018-07-14T14:54:52.749Z,35.40
2018-07-14T14:57:20.459Z,35.30
2018-07-14T14:59:48.011Z,35.40
2018-07-14T15:02:15.562Z,35.20
2018-07-14T15:04:43.107Z,35.00
2018-07-14T15:07:10.662Z,35.00
2018-07-14T15:09:38.360Z,35.10
2018-07-14T15:12:06.159Z,34.90
2018-07-14T15:14:33.726Z,34.60
2018-07-14T15:17:01.267Z,34.30
2018-07-14T15:19:28.865Z,34.20
2018-07-14T15:21:56.457Z,34.30
2018-07-14T15:24:24.013Z,34.40
2018-07-14T15:26:51.544Z,34.40
2018-07-14T15:29:19.092Z,34.50
2018-07-14T15:31:46.630Z,34.70
2018-07-14T15:34:14.187Z,34.50
2018-07-14T15:36:41.741Z,34.20
2018-07-14T15:39:09.699Z,33.80
2018-07-14T15:41:37.654Z,33.50
2018-07-14T15:44:05.206Z,33.40
2018-07-14T15:46:32.745Z,33.30
2018-07-14T15:49:00.286Z,33.10
2018-07-14T15:51:27.814Z,32.60
2018-07-14T15:53:55.355Z,32.50
2018-07-14T15:56:22.967Z,32.30
2018-07-14T15:58:50.501Z,32.10
2018-07-14T16:01:18.066Z,31.90
2018-07-14T16:03:45.621Z,31.90
2018-07-14T16:06:13.199Z,32.10
2018-07-14T16:08:40.732Z,32.10
2018-07-14T16:11:08.385Z,32.10
2018-07-14T16:13:36.245Z,32.20
2018-07-14T16:16:03.843Z,32.10
2018-07-14T16:18:31.430Z,32.00
2018-07-14T16:20:58.977Z,31.80
2018-07-14T16:23:26.500Z,31.60
2018-07-14T16:25:54.067Z,31.60
2018-07-14T16:28:21.647Z,31.70
2018-07-14T16:30:49.180Z,31.70
2018-07-14T16:33:16.729Z,31.60
2018-07-14T16:35:44.427Z,31.40
2018-07-14T16:38:11.849Z,31.10
2018-07-14T16:40:39.427Z,30.70
2018-07-14T16:43:06.992Z,30.50
2018-07-14T16:45:34.556Z,30.50
2018-07-14T16:48:02.109Z,30.50
2018-07-14T16:50:29.661Z,30.40
2018-07-14T16:52:57.218Z,30.30
2018-07-14T16:55:24.757Z,30.20
2018-07-14T16:57:52.313Z,30.00
2018-07-14T17:00:19.886Z,29.80
2018-07-14T17:02:47.455Z,29.70
2018-07-14T17:05:14.997Z,29.60
2018-07-14T17:07:42.566Z,29.50
2018-07-14T17:10:10.108Z,29.30
2018-07-14T17:12:37.663Z,29.20
2018-07-14T17:15:05.273Z,29.00
2018-07-14T17:17:32.833Z,28.80
2018-07-14T17:20:00.382Z,28.70
2018-07-14T17:22:27.926Z,28.60
2018-07-14T17:24:55.482Z,28.40
2018-07-14T17:27:23.151Z,28.30
2018-07-14T17:29:50.681Z,28.20
2018-07-14T17:32:18.481Z,28.10
2018-07-14T17:34:46.051Z,28.00
2018-07-14T17:37:13.610Z,27.90
2018-07-14T17:39:41.153Z,27.90
2018-07-14T17:42:08.713Z,28.00
2018-07-14T17:44:36.275Z,28.00
2018-07-14T17:49:31.612Z,28.10
2018-07-14T17:51:59.183Z,28.10
2018-07-14T17:56:54.330Z,28.20
2018-07-14T17:59:21.894Z,28.20
2018-07-14T18:01:49.454Z,28.20
2018-07-14T18:04:17.008Z,28.20
2018-07-14T18:06:44.554Z,28.00
2018-07-14T18:09:12.118Z,27.90
2018-07-14T18:11:39.845Z,27.60
2018-07-14T18:16:35.091Z,27.20
2018-07-14T18:19:02.601Z,27.00
2018-07-14T18:21:30.151Z,26.80
2018-07-14T18:23:57.729Z,26.60
2018-07-14T18:26:25.271Z,26.40
2018-07-14T18:28:52.877Z,26.20
2018-07-14T18:31:20.429Z,26.00
2018-07-14T18:33:47.986Z,25.90
2018-07-14T18:36:15.663Z,25.70
2018-07-14T18:38:43.095Z,25.60
2018-07-14T18:41:10.657Z,25.40
2018-07-14T18:43:38.203Z,25.30
2018-07-14T18:46:05.767Z,25.10
2018-07-14T18:48:33.326Z,24.80
2018-07-14T18:51:00.875Z,24.70
2018-07-14T18:53:28.425Z,24.40
2018-07-14T18:55:55.985Z,24.10
2018-07-14T18:58:23.525Z,23.90
2018-07-14T19:00:51.080Z,23.60
2018-07-14T19:03:18.635Z,23.30
2018-07-14T19:05:46.213Z,23.00
2018-07-14T19:08:13.778Z,22.80
2018-07-14T19:10:41.333Z,22.60
2018-07-14T19:13:08.886Z,22.40
2018-07-14T19:15:36.445Z,22.20
2018-07-14T19:18:04.028Z,22.00
2018-07-14T19:20:31.596Z,21.80
2018-07-14T19:22:59.146Z,21.70
2018-07-14T19:25:26.706Z,21.50
2018-07-14T19:27:54.278Z,21.40
2018-07-14T19:30:21.900Z,21.30
2018-07-14T19:32:49.406Z,21.10
2018-07-14T19:35:16.952Z,21.00
2018-07-14T19:37:44.478Z,20.90
2018-07-14T19:40:12.022Z,20.80
2018-07-14T19:42:39.556Z,20.70
2018-07-14T19:45:07.176Z,20.70
2018-07-14T19:47:40.018Z,20.60
2018-07-14T19:52:35.285Z,20.40
2018-07-14T19:55:02.845Z,20.30
2018-07-14T19:57:30.422Z,20.20
2018-07-14T19:59:57.965Z,20.10
2018-07-14T20:02:25.538Z,20.10
2018-07-14T20:04:53.080Z,20.00
2018-07-14T20:07:20.658Z,19.90
2018-07-14T20:09:48.230Z,19.80
2018-07-14T20:12:15.806Z,19.70
2018-07-14T20:14:43.374Z,19.60
2018-07-14T20:17:10.933Z,19.50
2018-07-14T20:19:38.485Z,19.50
2018-07-14T20:22:06.057Z,19.40
2018-07-14T20:27:01.374Z,19.20
2018-07-14T20:29:28.909Z,19.10
2018-07-14T20:31:56.470Z,19.00
2018-07-14T20:34:24.027Z,18.90
2018-07-14T20:36:51.570Z,18.80
2018-07-14T20:39:19.116Z,18.70
2018-07-14T20:41:46.710Z,18.50
2018-07-14T20:44:14.241Z,18.50
2018-07-14T20:46:41.809Z,18.40
2018-07-14T20:49:09.386Z,18.30
2018-07-14T20:51:37.006Z,18.20
2018-07-14T20:54:05.081Z,18.20
2018-07-14T20:56:32.638Z,18.20
2018-07-14T20:59:00.186Z,18.20
2018-07-14T21:01:41.444Z,18.20
2018-07-14T21:04:16.822Z,18.20
2018-07-14T21:06:44.364Z,18.10
2018-07-14T21:09:11.912Z,18.10
2018-07-14T21:11:39.470Z,18.00
2018-07-14T21:14:20.304Z,18.00
2018-07-14T21:16:47.833Z,17.90
2018-07-14T21:19:15.388Z,17.90
2018-07-14T21:21:42.954Z,17.90
2018-07-14T21:24:19.013Z,17.90
2018-07-14T21:26:46.577Z,17.80
2018-07-14T21:29:14.146Z,17.80
2018-07-14T21:31:41.767Z,17.70
2018-07-14T21:34:09.287Z,17.70
2018-07-14T21:36:36.851Z,17.60
2018-07-14T21:39:05.794Z,17.60
2018-07-14T21:41:33.334Z,17.50
2018-07-14T21:44:00.876Z,17.50
2018-07-14T21:46:28.428Z,17.40
2018-07-14T21:48:55.981Z,17.40
2018-07-14T21:51:23.545Z,17.30
2018-07-14T21:53:54.312Z,17.30
2018-07-14T21:56:21.895Z,17.20
2018-07-14T21:58:49.513Z,17.20
2018-07-14T22:01:22.802Z,17.20
2018-07-14T22:03:50.366Z,17.10
2018-07-14T22:06:34.870Z,17.10
2018-07-14T22:09:02.661Z,17.10
2018-07-14T22:11:30.197Z,17.10
2018-07-14T22:13:57.757Z,17.10
2018-07-14T22:16:25.442Z,17.00
2018-07-14T22:18:53.009Z,17.00
2018-07-14T22:21:20.582Z,16.90
2018-07-14T22:23:48.165Z,16.90
2018-07-14T22:26:15.736Z,16.90
2018-07-14T22:28:43.298Z,16.80
2018-07-14T22:31:10.840Z,16.80
2018-07-14T22:33:38.389Z,16.70
2018-07-14T22:36:05.958Z,16.70
2018-07-14T22:38:33.518Z,16.60
2018-07-14T22:41:06.314Z,16.70
2018-07-14T22:43:33.868Z,16.70
2018-07-14T22:46:01.432Z,16.70
2018-07-14T22:48:28.986Z,16.60
2018-07-14T22:50:56.534Z,16.60
2018-07-14T22:53:24.086Z,16.50
2018-07-14T22:55:51.637Z,16.50
2018-07-14T22:58:19.272Z,16.50
2018-07-14T23:00:46.835Z,16.50
2018-07-14T23:03:14.396Z,16.50
2018-07-14T23:05:41.970Z,16.50
2018-07-14T23:08:09.520Z,16.50
2018-07-14T23:10:37.098Z,16.50
2018-07-14T23:13:04.651Z,16.50
2018-07-14T23:15:45.126Z,16.40
2018-07-14T23:18:12.661Z,16.40
2018-07-14T23:20:41.042Z,16.40
2018-07-14T23:23:08.629Z,16.50
2018-07-14T23:25:36.178Z,16.40
2018-07-14T23:28:04.216Z,16.40
2018-07-14T23:30:31.757Z,16.40
2018-07-14T23:32:59.289Z,16.40
2018-07-14T23:35:26.869Z,16.30
2018-07-14T23:38:18.060Z,16.30
2018-07-14T23:40:45.613Z,16.20
2018-07-14T23:43:13.150Z,16.10
2018-07-14T23:45:40.688Z,16.10
2018-07-14T23:48:08.224Z,16.10
2018-07-14T23:50:35.794Z,16.10
2018-07-14T23:53:03.365Z,16.10
2018-07-14T23:55:30.945Z,16.10
2018-07-14T23:58:04.679Z,16.10
